Time;durP1;ratioP1;P1;durP2;ratioP2;P2;SDS_P1;SDS_P2;PMS_P1;PMS_P2;Temp;Humidity;BMP_temperature;BMP_pressure;BME280_temperature;BME280_humidity;BME280_pressure;Samples;Min_cycle;Max_cycle;Signal;HPM_P1;HPM_P2
2023/07/16 00:00:30;;;;;;;6.85;1.80;;;17.00;99.90;;;;;;5108708;28;20039;-64
2023/07/16 00:02:56;;;;;;;6.05;2.38;;;17.00;99.90;;;;;;5110209;28;20046;-64
2023/07/16 00:05:22;;;;;;;5.53;1.90;;;17.00;99.90;;;;;;5106563;28;20047;-65
2023/07/16 00:07:47;;;;;;;8.13;2.08;;;17.00;99.90;;;;;;5092250;28;20036;-65
2023/07/16 00:10:13;;;;;;;7.35;2.17;;;17.00;99.90;;;;;;5108633;28;20535;-65
2023/07/16 00:12:39;;;;;;;8.65;2.33;;;17.00;99.90;;;;;;5108479;28;20042;-64
2023/07/16 00:15:06;;;;;;;8.48;1.92;;;17.00;99.90;;;;;;5109967;28;20043;-65
2023/07/16 00:17:33;;;;;;;10.48;2.10;;;17.00;99.90;;;;;;5109140;28;20043;-63
2023/07/16 00:19:58;;;;;;;6.10;2.22;;;16.90;99.90;;;;;;5107642;28;20039;-63
2023/07/16 00:22:24;;;;;;;7.68;2.03;;;17.00;99.90;;;;;;5106157;28;20167;-65
2023/07/16 00:24:50;;;;;;;8.50;2.35;;;17.00;99.90;;;;;;5110025;28;20040;-64
2023/07/16 00:27:15;;;;;;;9.95;2.10;;;17.00;99.90;;;;;;5109630;28;20040;-65
2023/07/16 00:29:41;;;;;;;8.60;2.28;;;17.00;99.90;;;;;;5107878;28;20040;-65
2023/07/16 00:32:07;;;;;;;7.18;2.33;;;17.00;99.90;;;;;;5110030;28;20482;-63
2023/07/16 00:34:32;;;;;;;7.45;2.10;;;16.90;99.90;;;;;;5109233;28;20047;-63
2023/07/16 00:37:01;;;;;;;8.73;2.75;;;16.90;99.90;;;;;;5109702;28;20054;-63
2023/07/16 00:39:30;;;;;;;7.32;1.98;;;16.90;99.90;;;;;;5089777;28;20128;-64
2023/07/16 00:41:56;;;;;;;9.88;2.70;;;16.90;99.90;;;;;;5110115;28;20083;-64
2023/07/16 00:44:22;;;;;;;9.13;2.15;;;16.90;99.90;;;;;;5109534;28;20479;-63
2023/07/16 00:46:48;;;;;;;10.90;2.20;;;16.90;99.90;;;;;;5109795;28;20046;-66
2023/07/16 00:49:13;;;;;;;8.63;2.92;;;16.90;99.90;;;;;;5102140;28;20683;-64
2023/07/16 00:51:40;;;;;;;7.22;1.80;;;16.80;99.90;;;;;;5095871;28;20044;-65
2023/07/16 00:54:06;;;;;;;7.05;2.35;;;16.80;99.90;;;;;;5105647;28;20091;-65
2023/07/16 00:56:32;;;;;;;8.93;2.50;;;16.80;99.90;;;;;;5099962;28;20035;-63
2023/07/16 00:58:57;;;;;;;6.32;2.05;;;16.80;99.90;;;;;;5093440;28;20050;-64
2023/07/16 01:01:23;;;;;;;7.68;2.10;;;16.80;99.90;;;;;;5092711;28;20104;-64
2023/07/16 01:03:49;;;;;;;8.40;2.60;;;16.80;99.90;;;;;;5107371;28;20071;-63
2023/07/16 01:06:20;;;;;;;8.23;2.13;;;16.80;99.90;;;;;;5109493;28;20071;-65
2023/07/16 01:08:53;;;;;;;7.80;2.28;;;16.80;99.90;;;;;;5100968;28;20086;-65
2023/07/16 01:11:19;;;;;;;5.65;2.10;;;16.80;99.90;;;;;;5096440;28;20058;-64
2023/07/16 01:13:45;;;;;;;5.85;2.38;;;16.70;99.90;;;;;;5108637;28;20043;-63
2023/07/16 01:16:24;;;;;;;11.13;2.22;;;16.70;99.90;;;;;;5099598;28;20123;-64
2023/07/16 01:18:50;;;;;;;11.05;2.55;;;16.70;99.90;;;;;;5105999;28;20035;-65
2023/07/16 01:21:19;;;;;;;6.53;2.10;;;16.60;99.90;;;;;;5097119;28;20040;-63
2023/07/16 01:23:50;;;;;;;5.60;2.30;;;16.60;99.90;;;;;;5107005;28;20498;-65
2023/07/16 01:26:45;;;;;;;5.72;2.58;;;16.60;99.90;;;;;;5107064;28;20123;-65
2023/07/16 01:29:36;;;;;;;7.03;2.38;;;16.60;99.90;;;;;;5109665;28;20478;-65
2023/07/16 01:32:05;;;;;;;7.57;2.75;;;16.70;99.90;;;;;;5111245;28;20396;-64
2023/07/16 01:34:33;;;;;;;8.00;3.10;;;16.70;99.90;;;;;;5106383;28;20051;-65
2023/07/16 01:37:03;;;;;;;7.65;2.33;;;16.70;99.90;;;;;;5099086;28;20391;-63
2023/07/16 01:39:30;;;;;;;8.35;2.47;;;16.80;99.90;;;;;;5092865;28;20498;-62
2023/07/16 01:41:56;;;;;;;6.35;2.63;;;16.80;99.90;;;;;;5106289;28;20047;-64
2023/07/16 01:44:22;;;;;;;8.80;3.13;;;16.80;99.90;;;;;;5108981;28;20032;-63
2023/07/16 01:47:07;;;;;;;7.80;2.50;;;16.80;99.90;;;;;;5100783;28;20067;-64
2023/07/16 01:49:33;;;;;;;8.50;2.83;;;16.90;99.90;;;;;;5128102;27;20045;-65
2023/07/16 01:52:01;;;;;;;5.65;2.80;;;16.90;99.90;;;;;;5131454;27;20034;-64
2023/07/16 01:54:27;;;;;;;8.93;2.95;;;16.90;99.90;;;;;;5128593;27;20484;-64
2023/07/16 01:56:52;;;;;;;9.23;3.10;;;16.90;99.90;;;;;;5125342;27;20058;-65
2023/07/16 01:59:18;;;;;;;9.43;2.90;;;16.90;99.90;;;;;;5152992;27;20035;-64
2023/07/16 02:01:43;;;;;;;6.90;2.80;;;16.90;99.90;;;;;;5108801;27;20043;-64
2023/07/16 02:04:09;;;;;;;7.18;3.28;;;16.90;99.90;;;;;;5121455;27;20031;-64
2023/07/16 02:06:35;;;;;;;9.95;2.97;;;16.90;99.90;;;;;;5127537;27;20042;-63
2023/07/16 02:09:00;;;;;;;8.18;2.95;;;16.90;99.90;;;;;;5129354;27;20041;-64
2023/07/16 02:11:26;;;;;;;12.05;3.50;;;16.90;99.90;;;;;;5131958;27;20041;-64
2023/07/16 02:13:51;;;;;;;10.15;2.97;;;16.90;99.90;;;;;;5128979;27;20460;-63
2023/07/16 02:16:17;;;;;;;9.48;3.47;;;16.90;99.90;;;;;;5121208;27;20119;-64
2023/07/16 02:18:43;;;;;;;10.80;3.15;;;16.90;99.90;;;;;;5126815;27;20038;-63
2023/07/16 02:21:08;;;;;;;10.70;3.00;;;16.90;99.90;;;;;;5143872;27;20065;-65
2023/07/16 02:23:34;;;;;;;8.73;3.20;;;16.80;99.90;;;;;;5110257;27;20086;-64
2023/07/16 02:26:01;;;;;;;9.15;3.03;;;16.90;99.90;;;;;;5122507;27;20491;-64
2023/07/16 02:28:26;;;;;;;10.90;2.95;;;16.80;99.90;;;;;;5128651;27;20058;-64
2023/07/16 02:30:52;;;;;;;7.95;3.10;;;16.80;99.90;;;;;;5129185;27;20493;-66
2023/07/16 02:33:17;;;;;;;7.18;2.63;;;16.80;99.90;;;;;;5128191;27;20393;-64
2023/07/16 02:35:51;;;;;;;9.38;2.85;;;16.80;99.90;;;;;;5131646;27;20404;-64
2023/07/16 02:38:17;;;;;;;8.48;2.65;;;16.70;99.90;;;;;;5145719;27;20441;-63
2023/07/16 02:40:47;;;;;;;10.10;3.25;;;16.70;99.90;;;;;;5106523;27;20050;-64
2023/07/16 02:43:13;;;;;;;10.27;3.20;;;16.80;99.90;;;;;;5114586;27;20174;-65
2023/07/16 02:45:39;;;;;;;8.93;3.72;;;16.70;99.90;;;;;;5111674;27;20415;-63
2023/07/16 02:48:06;;;;;;;6.53;2.97;;;16.70;99.90;;;;;;5129089;27;20042;-64
2023/07/16 02:50:35;;;;;;;7.75;3.03;;;16.70;99.90;;;;;;5120458;27;20085;-65
2023/07/16 02:53:03;;;;;;;11.32;3.15;;;16.70;99.90;;;;;;5130724;27;20035;-64
2023/07/16 02:55:28;;;;;;;9.80;3.25;;;16.70;99.90;;;;;;5120043;27;20031;-64
2023/07/16 02:57:54;;;;;;;8.80;3.00;;;16.70;99.90;;;;;;5118985;27;20043;-64
2023/07/16 03:00:20;;;;;;;8.82;3.55;;;16.70;99.90;;;;;;5123050;27;20077;-63
2023/07/16 03:02:45;;;;;;;9.80;3.47;;;16.60;99.90;;;;;;5115192;27;20458;-64
2023/07/16 03:05:11;;;;;;;9.98;3.30;;;16.60;99.90;;;;;;5130418;27;20149;-65
2023/07/16 03:07:37;;;;;;;10.93;3.72;;;16.60;99.90;;;;;;5120808;27;20071;-64
2023/07/16 03:10:03;;;;;;;11.68;3.45;;;16.50;99.90;;;;;;5121317;27;20047;-65
2023/07/16 03:12:28;;;;;;;7.47;3.33;;;16.50;99.90;;;;;;5119978;27;20184;-65
2023/07/16 03:14:54;;;;;;;8.15;3.25;;;16.50;99.90;;;;;;5115808;27;20039;-63
2023/07/16 03:17:22;;;;;;;11.88;3.28;;;16.50;99.90;;;;;;5129502;27;20050;-64
2023/07/16 03:19:48;;;;;;;7.47;3.45;;;16.50;99.90;;;;;;5128803;27;20038;-64
2023/07/16 03:22:14;;;;;;;9.00;3.40;;;16.50;99.90;;;;;;5126831;27;20051;-64
2023/07/16 03:24:40;;;;;;;9.45;3.88;;;16.40;99.90;;;;;;5123142;27;20445;-64
2023/07/16 03:27:06;;;;;;;8.35;3.50;;;16.40;99.90;;;;;;5127140;27;20042;-64
2023/07/16 03:29:33;;;;;;;9.93;4.00;;;16.40;99.90;;;;;;5123519;27;20039;-63
2023/07/16 03:31:59;;;;;;;12.40;3.80;;;16.40;99.90;;;;;;5119389;27;20565;-64
2023/07/16 03:34:24;;;;;;;9.45;3.45;;;16.40;99.90;;;;;;5129023;27;20137;-64
2023/07/16 03:36:50;;;;;;;9.18;4.07;;;16.40;99.90;;;;;;5129947;27;20046;-64
2023/07/16 03:39:16;;;;;;;8.48;3.70;;;16.40;99.90;;;;;;5120718;27;20046;-63
2023/07/16 03:41:41;;;;;;;9.80;4.20;;;16.30;99.90;;;;;;5118990;27;20041;-64
2023/07/16 03:44:07;;;;;;;10.27;3.83;;;16.30;99.90;;;;;;5129549;27;20035;-64
2023/07/16 03:46:32;;;;;;;8.38;3.45;;;16.30;99.90;;;;;;5120581;27;20389;-65
2023/07/16 03:48:58;;;;;;;10.48;3.92;;;16.30;99.90;;;;;;5122458;27;20042;-65
2023/07/16 03:51:24;;;;;;;8.13;3.85;;;16.30;99.90;;;;;;5128907;27;20524;-64
2023/07/16 03:53:49;;;;;;;12.10;3.92;;;16.30;99.90;;;;;;5119717;27;20086;-64
2023/07/16 03:56:15;;;;;;;11.05;4.03;;;16.20;99.90;;;;;;5148499;27;20046;-64
2023/07/16 03:58:41;;;;;;;11.27;3.53;;;16.20;99.90;;;;;;5112198;27;20042;-63
2023/07/16 04:01:06;;;;;;;11.60;3.85;;;16.20;99.90;;;;;;5120307;27;20439;-63
2023/07/16 04:03:32;;;;;;;9.35;4.00;;;16.20;99.90;;;;;;5123098;27;20038;-64
2023/07/16 04:06:02;;;;;;;9.32;3.80;;;16.30;99.90;;;;;;5120850;27;20069;-65
2023/07/16 04:08:28;;;;;;;8.38;3.53;;;16.30;99.90;;;;;;5128885;27;20384;-63
2023/07/16 04:10:54;;;;;;;12.02;4.30;;;16.30;99.90;;;;;;5111145;27;20118;-64
2023/07/16 04:13:19;;;;;;;11.48;3.80;;;16.30;99.90;;;;;;5151834;27;20039;-64
2023/07/16 04:15:45;;;;;;;12.32;4.13;;;16.30;99.90;;;;;;5146840;27;20505;-64
2023/07/16 04:18:10;;;;;;;12.00;3.97;;;16.30;99.90;;;;;;5124025;27;20042;-64
2023/07/16 04:20:36;;;;;;;11.02;3.72;;;16.30;99.90;;;;;;5115249;27;20070;-64
2023/07/16 04:23:02;;;;;;;13.43;3.75;;;16.40;99.90;;;;;;5127435;27;20114;-64
2023/07/16 04:25:27;;;;;;;10.35;4.10;;;16.40;99.90;;;;;;5115925;27;20409;-64
2023/07/16 04:27:53;;;;;;;10.93;3.90;;;16.40;99.90;;;;;;5118666;27;20038;-64
2023/07/16 04:30:19;;;;;;;12.38;4.10;;;16.50;99.90;;;;;;5149335;27;20066;-65
2023/07/16 04:32:44;;;;;;;11.82;3.85;;;16.50;99.90;;;;;;5113248;27;20031;-64
2023/07/16 04:35:10;;;;;;;9.40;3.72;;;16.50;99.90;;;;;;5122746;27;20050;-65
2023/07/16 04:37:35;;;;;;;10.00;3.63;;;16.50;99.90;;;;;;5128621;27;20038;-65
2023/07/16 04:40:02;;;;;;;6.60;3.22;;;16.50;99.90;;;;;;5136269;27;20027;-64
2023/07/16 04:42:28;;;;;;;9.85;3.75;;;16.50;99.90;;;;;;5125369;27;20068;-65
2023/07/16 04:44:53;;;;;;;13.15;3.85;;;16.60;99.90;;;;;;5116511;27;20051;-64
2023/07/16 04:47:19;;;;;;;9.98;3.72;;;16.60;99.90;;;;;;5112963;27;20031;-65
2023/07/16 04:49:45;;;;;;;11.02;3.58;;;16.70;99.90;;;;;;5113204;27;20047;-64
2023/07/16 04:52:10;;;;;;;9.07;3.30;;;16.70;99.90;;;;;;5119193;27;20477;-64
2023/07/16 04:54:39;;;;;;;7.22;3.38;;;16.70;99.90;;;;;;5125494;27;20057;-65
2023/07/16 04:57:07;;;;;;;12.45;3.35;;;16.80;99.90;;;;;;5115586;27;20136;-66
2023/07/16 04:59:33;;;;;;;7.78;2.97;;;16.80;99.90;;;;;;5122960;28;20411;-63
2023/07/16 05:01:59;;;;;;;9.57;3.40;;;16.80;99.90;;;;;;5112509;27;20039;-64
2023/07/16 05:04:24;;;;;;;8.25;3.30;;;16.90;99.90;;;;;;5142064;27;20075;-65
2023/07/16 05:06:51;;;;;;;8.60;3.88;;;16.90;99.90;;;;;;5125845;27;20046;-64
2023/07/16 05:09:17;;;;;;;8.57;3.28;;;16.90;99.90;;;;;;5122923;27;20179;-63
2023/07/16 05:11:42;;;;;;;10.05;2.88;;;17.00;99.90;;;;;;5138522;27;20106;-63
2023/07/16 05:14:08;;;;;;;9.55;3.50;;;17.00;99.90;;;;;;5119384;27;20039;-64
2023/07/16 05:16:34;;;;;;;8.20;3.13;;;17.10;99.90;;;;;;5121081;27;20035;-63
2023/07/16 05:18:59;;;;;;;6.82;2.97;;;17.10;99.90;;;;;;5122981;27;20143;-64
2023/07/16 05:21:25;;;;;;;10.05;3.10;;;17.20;99.90;;;;;;5123816;27;20489;-63
2023/07/16 05:23:50;;;;;;;10.07;3.58;;;17.20;99.90;;;;;;5129278;27;20050;-63
2023/07/16 05:26:16;;;;;;;8.40;3.10;;;17.20;99.90;;;;;;5126814;27;20038;-64
2023/07/16 05:28:42;;;;;;;6.97;3.15;;;17.20;99.90;;;;;;5116952;27;20540;-64
2023/07/16 05:31:07;;;;;;;8.23;3.30;;;17.30;99.90;;;;;;5148425;27;20066;-63
2023/07/16 05:33:33;;;;;;;10.35;3.50;;;17.40;99.90;;;;;;5135051;27;20130;-65
2023/07/16 05:35:58;;;;;;;10.10;3.35;;;17.50;99.90;;;;;;5103927;27;20081;-64
2023/07/16 05:38:24;;;;;;;9.15;3.58;;;17.50;99.90;;;;;;5114410;27;20058;-64
2023/07/16 05:41:01;;;;;;;11.43;3.78;;;17.60;99.90;;;;;;5122320;27;20043;-66
2023/07/16 05:43:27;;;;;;;10.80;3.63;;;17.70;99.90;;;;;;5128491;27;20088;-66
2023/07/16 05:45:53;;;;;;;11.20;3.83;;;17.70;99.90;;;;;;5132614;27;20039;-65
2023/07/16 05:48:19;;;;;;;8.30;3.35;;;17.80;99.90;;;;;;5099790;27;20031;-63
2023/07/16 05:50:45;;;;;;;9.93;3.67;;;17.90;99.90;;;;;;5126489;27;20095;-64
2023/07/16 05:53:11;;;;;;;9.23;4.03;;;17.90;99.90;;;;;;5123050;27;20493;-64
2023/07/16 05:55:39;;;;;;;8.77;3.63;;;17.90;99.90;;;;;;5117238;27;20043;-64
2023/07/16 05:58:05;;;;;;;6.93;3.38;;;18.00;99.90;;;;;;5127397;27;20043;-64
2023/07/16 06:00:31;;;;;;;10.48;4.00;;;18.00;99.90;;;;;;5116516;27;20039;-64
2023/07/16 06:02:57;;;;;;;11.02;3.80;;;18.10;99.90;;;;;;5120769;27;20043;-63
2023/07/16 06:05:24;;;;;;;8.15;3.90;;;18.10;99.90;;;;;;5145082;27;20057;-64
2023/07/16 06:07:50;;;;;;;9.18;3.78;;;18.10;99.90;;;;;;5128245;27;20133;-63
2023/07/16 06:10:16;;;;;;;9.52;4.43;;;18.20;99.90;;;;;;5106782;27;20039;-65
2023/07/16 06:12:42;;;;;;;8.48;3.47;;;18.20;99.90;;;;;;5124100;27;20607;-65
2023/07/16 06:15:08;;;;;;;11.38;3.95;;;18.30;99.90;;;;;;5100641;27;20417;-64
2023/07/16 06:17:40;;;;;;;11.32;4.45;;;18.30;99.90;;;;;;5144939;27;20042;-64
2023/07/16 06:20:07;;;;;;;7.93;3.83;;;18.40;99.90;;;;;;5117158;27;20073;-65
2023/07/16 06:22:35;;;;;;;10.07;3.75;;;18.50;99.90;;;;;;5134031;27;20283;-66
2023/07/16 06:25:01;;;;;;;9.50;3.78;;;18.60;99.90;;;;;;5127703;27;20047;-64
2023/07/16 06:27:27;;;;;;;9.68;4.13;;;18.50;99.90;;;;;;5121485;27;20046;-64
2023/07/16 06:29:53;;;;;;;9.82;3.83;;;18.70;99.90;;;;;;5104104;27;20047;-65
2023/07/16 06:32:18;;;;;;;7.53;3.53;;;18.70;99.90;;;;;;5125210;27;20043;-64
2023/07/16 06:34:44;;;;;;;7.93;4.00;;;18.80;99.90;;;;;;5134476;27;20031;-63
2023/07/16 06:37:10;;;;;;;7.63;3.80;;;18.80;99.90;;;;;;5117383;27;20057;-65
2023/07/16 06:39:35;;;;;;;11.90;4.90;;;18.90;99.90;;;;;;5121161;27;20555;-66
2023/07/16 06:42:01;;;;;;;11.20;4.10;;;19.00;99.90;;;;;;5115159;27;20088;-65
2023/07/16 06:44:27;;;;;;;10.27;4.30;;;19.00;99.90;;;;;;5109819;27;20059;-65
2023/07/16 06:46:52;;;;;;;10.13;4.47;;;19.00;99.90;;;;;;5130333;27;20031;-64
2023/07/16 06:49:19;;;;;;;7.63;4.05;;;19.00;99.90;;;;;;5124763;27;20047;-65
2023/07/16 06:51:44;;;;;;;9.05;4.30;;;19.10;99.90;;;;;;5122729;27;20468;-66
2023/07/16 06:54:10;;;;;;;14.55;4.40;;;19.20;99.90;;;;;;5130023;27;20118;-64
2023/07/16 06:56:36;;;;;;;8.20;4.05;;;19.30;99.90;;;;;;5147152;27;20043;-64
2023/07/16 06:59:01;;;;;;;7.38;4.28;;;19.20;99.90;;;;;;5132992;27;20031;-64
2023/07/16 07:01:27;;;;;;;9.02;4.40;;;19.20;99.90;;;;;;5148661;27;20083;-65
2023/07/16 07:03:54;;;;;;;10.90;4.38;;;19.20;99.90;;;;;;5120116;27;20067;-65
2023/07/16 07:06:21;;;;;;;9.65;3.80;;;19.20;99.90;;;;;;5133165;27;20471;-64
2023/07/16 07:08:47;;;;;;;8.55;4.15;;;19.40;99.90;;;;;;5136395;27;20118;-65
2023/07/16 07:11:12;;;;;;;7.78;3.90;;;19.40;99.90;;;;;;5116791;27;20125;-64
2023/07/16 07:13:38;;;;;;;9.32;4.43;;;19.40;99.90;;;;;;5123475;27;20051;-64
2023/07/16 07:16:04;;;;;;;10.80;3.80;;;19.50;99.90;;;;;;5136044;27;20042;-65
2023/07/16 07:18:29;;;;;;;9.77;4.70;;;19.70;99.90;;;;;;5124826;27;20492;-65
2023/07/16 07:20:55;;;;;;;8.38;4.18;;;19.70;99.90;;;;;;5126934;27;20047;-66
2023/07/16 07:23:20;;;;;;;8.50;3.88;;;19.80;99.90;;;;;;5119097;27;20481;-65
2023/07/16 07:25:51;;;;;;;8.55;4.43;;;19.70;99.90;;;;;;5097936;27;20134;-64
2023/07/16 07:28:16;;;;;;;6.97;4.10;;;19.60;99.90;;;;;;5130010;27;20046;-65
2023/07/16 07:30:42;;;;;;;8.98;4.53;;;19.60;99.90;;;;;;5121606;27;20159;-65
2023/07/16 07:33:08;;;;;;;13.57;4.72;;;19.70;99.90;;;;;;5123718;27;20441;-65
2023/07/16 07:35:33;;;;;;;8.05;4.10;;;19.80;99.90;;;;;;5121222;27;20407;-64
2023/07/16 07:37:59;;;;;;;7.85;4.20;;;19.90;99.90;;;;;;5117407;27;20039;-66
2023/07/16 07:40:26;;;;;;;8.65;3.95;;;19.90;99.80;;;;;;5133801;27;20083;-65
2023/07/16 07:42:51;;;;;;;7.45;4.30;;;19.90;99.90;;;;;;5133868;27;20043;-65
2023/07/16 07:45:17;;;;;;;9.40;4.40;;;19.90;99.70;;;;;;5134193;27;20049;-66
2023/07/16 07:47:42;;;;;;;9.30;4.10;;;19.90;99.90;;;;;;5134522;27;20035;-66
2023/07/16 07:50:09;;;;;;;8.48;4.25;;;20.00;99.90;;;;;;5124996;27;20055;-65
2023/07/16 07:52:34;;;;;;;7.95;4.00;;;20.00;99.80;;;;;;5119056;27;20084;-64
2023/07/16 07:55:00;;;;;;;9.05;4.10;;;20.00;99.20;;;;;;5113626;27;20431;-64
2023/07/16 07:57:25;;;;;;;11.10;4.22;;;20.10;99.60;;;;;;5113657;27;20088;-66
2023/07/16 07:59:56;;;;;;;9.88;4.78;;;20.20;99.50;;;;;;5117778;27;20054;-64
2023/07/16 08:02:23;;;;;;;9.57;4.68;;;20.10;99.60;;;;;;5134018;27;20497;-65
2023/07/16 08:04:51;;;;;;;7.00;3.70;;;20.10;99.60;;;;;;5118254;27;20035;-64
2023/07/16 08:07:17;;;;;;;11.00;3.83;;;20.10;99.90;;;;;;5115301;27;20443;-65
2023/07/16 08:09:43;;;;;;;10.05;4.55;;;20.00;99.90;;;;;;5129103;27;20068;-65
2023/07/16 08:12:09;;;;;;;6.72;3.90;;;20.00;99.30;;;;;;5131471;27;20038;-64
2023/07/16 08:14:34;;;;;;;8.05;4.25;;;20.10;99.90;;;;;;5120928;27;20082;-64
2023/07/16 08:17:00;;;;;;;10.63;3.90;;;20.20;99.90;;;;;;5114760;27;20522;-65
2023/07/16 08:19:25;;;;;;;11.15;4.43;;;20.20;99.90;;;;;;5131726;27;20031;-64
2023/07/16 08:21:51;;;;;;;11.18;4.20;;;20.00;99.90;;;;;;5116264;27;20088;-65
2023/07/16 08:24:17;;;;;;;6.63;4.10;;;20.00;99.90;;;;;;5114290;27;20382;-65
2023/07/16 08:26:42;;;;;;;8.00;4.30;;;20.10;99.90;;;;;;5120889;27;20042;-65
2023/07/16 08:29:08;;;;;;;11.35;4.60;;;20.10;99.90;;;;;;5114555;27;20116;-65
2023/07/16 08:31:40;;;;;;;9.25;4.22;;;19.90;99.70;;;;;;5133063;27;20043;-66
2023/07/16 08:34:05;;;;;;;10.82;5.05;;;19.90;99.90;;;;;;5115093;27;20055;-63
2023/07/16 08:36:33;;;;;;;8.45;4.60;;;19.90;99.90;;;;;;5112587;27;20039;-64
2023/07/16 08:38:59;;;;;;;7.05;4.38;;;19.80;99.90;;;;;;5115136;27;20043;-64
2023/07/16 08:41:28;;;;;;;9.50;4.60;;;19.80;99.90;;;;;;5114105;27;20045;-65
2023/07/16 08:43:54;;;;;;;8.45;3.97;;;19.80;99.90;;;;;;5097576;27;20117;-65
2023/07/16 08:46:21;;;;;;;9.30;4.30;;;20.00;99.90;;;;;;5115818;27;20097;-65
2023/07/16 08:48:48;;;;;;;7.75;3.65;;;20.10;99.90;;;;;;5139705;27;20047;-64
2023/07/16 08:51:21;;;;;;;10.70;4.00;;;20.20;99.90;;;;;;5117898;27;20397;-66
2023/07/16 08:53:47;;;;;;;9.88;4.90;;;20.20;99.90;;;;;;5124076;27;20118;-66
2023/07/16 08:56:12;;;;;;;8.85;4.15;;;20.40;99.90;;;;;;5121377;27;20122;-65
2023/07/16 08:58:38;;;;;;;8.35;3.70;;;20.30;99.90;;;;;;5130922;27;20070;-64
2023/07/16 09:01:06;;;;;;;9.07;4.20;;;20.30;99.90;;;;;;5116367;27;20023;-64
2023/07/16 09:03:31;;;;;;;7.32;4.30;;;20.20;99.90;;;;;;5115040;27;20035;-64
2023/07/16 09:05:57;;;;;;;11.43;4.13;;;20.10;99.90;;;;;;5122179;27;20041;-63
2023/07/16 09:08:28;;;;;;;8.55;3.53;;;20.10;99.60;;;;;;5106120;27;20450;-64
2023/07/16 09:10:57;;;;;;;9.55;4.00;;;20.10;99.90;;;;;;5120012;27;20060;-64
2023/07/16 09:13:27;;;;;;;7.07;3.75;;;20.00;99.90;;;;;;5142255;27;20091;-64
2023/07/16 09:15:58;;;;;;;10.23;4.60;;;19.90;99.90;;;;;;5118102;27;20046;-64
2023/07/16 09:18:25;;;;;;;10.57;3.67;;;19.90;99.90;;;;;;5126859;27;20045;-63
2023/07/16 09:21:01;;;;;;;7.85;3.70;;;19.90;99.90;;;;;;5129548;27;20038;-65
2023/07/16 09:23:27;;;;;;;7.88;3.85;;;19.70;99.30;;;;;;5151757;27;20035;-63
2023/07/16 09:25:56;;;;;;;11.82;3.75;;;19.70;99.70;;;;;;5138284;27;20044;-64
2023/07/16 09:28:22;;;;;;;6.93;3.58;;;19.80;99.90;;;;;;5097667;27;20035;-65
2023/07/16 09:30:51;;;;;;;7.18;3.90;;;19.60;99.70;;;;;;5128543;27;20066;-63
2023/07/16 09:33:22;;;;;;;7.63;4.10;;;19.60;99.90;;;;;;5132470;27;20099;-64
2023/07/16 09:35:49;;;;;;;9.67;4.07;;;19.70;99.90;;;;;;5117028;28;20438;-63
2023/07/16 09:38:16;;;;;;;7.43;3.83;;;19.80;99.20;;;;;;5117089;27;20078;-65
2023/07/16 09:40:44;;;;;;;8.13;4.13;;;20.10;99.30;;;;;;5135806;27;20031;-64
2023/07/16 09:43:18;;;;;;;9.75;4.00;;;20.40;98.90;;;;;;5117066;27;20397;-63
2023/07/16 09:45:46;;;;;;;7.60;3.72;;;20.80;98.70;;;;;;5134926;27;20405;-64
2023/07/16 09:48:14;;;;;;;7.25;3.92;;;21.00;98.60;;;;;;5116539;27;20043;-64
2023/07/16 09:50:47;;;;;;;7.50;3.88;;;20.90;97.70;;;;;;5130304;27;20049;-63
2023/07/16 09:53:15;;;;;;;6.38;3.92;;;20.80;97.60;;;;;;5136290;27;20389;-64
2023/07/16 09:55:41;;;;;;;9.50;4.28;;;20.60;97.80;;;;;;5117835;27;20068;-63
2023/07/16 09:58:11;;;;;;;8.95;4.13;;;20.50;98.40;;;;;;5116032;27;20039;-63
2023/07/16 10:00:39;;;;;;;8.40;4.00;;;20.60;98.90;;;;;;5119983;27;20087;-63
2023/07/16 10:03:07;;;;;;;8.52;4.35;;;20.50;99.20;;;;;;5116261;27;20123;-63
2023/07/16 10:05:39;;;;;;;7.07;4.32;;;20.40;99.00;;;;;;5132952;27;20043;-64
2023/07/16 10:08:15;;;;;;;10.40;4.43;;;20.30;99.50;;;;;;5123204;27;20425;-64
2023/07/16 10:10:49;;;;;;;8.55;3.95;;;20.20;99.90;;;;;;5119848;27;20031;-63
2023/07/16 10:13:15;;;;;;;9.48;4.15;;;20.20;99.90;;;;;;5135772;27;20039;-65
2023/07/16 10:15:59;;;;;;;6.97;4.38;;;20.10;99.90;;;;;;5118908;27;20505;-65
2023/07/16 10:18:31;;;;;;;12.00;4.43;;;20.10;99.90;;;;;;5115544;27;20046;-63
2023/07/16 10:21:01;;;;;;;12.40;4.03;;;20.00;99.90;;;;;;5134898;27;20043;-64
2023/07/16 10:23:37;;;;;;;10.35;4.32;;;20.00;99.90;;;;;;5115406;27;20055;-65
2023/07/16 10:26:09;;;;;;;8.30;4.13;;;20.50;99.90;;;;;;5136524;27;20420;-66
2023/07/16 10:28:35;;;;;;;8.93;4.00;;;20.80;99.90;;;;;;5120000;27;20472;-64
2023/07/16 10:31:01;;;;;;;8.63;4.22;;;20.90;99.70;;;;;;5115809;27;20050;-65
2023/07/16 10:33:27;;;;;;;9.20;4.45;;;20.90;99.30;;;;;;5132150;27;20035;-65
2023/07/16 10:35:53;;;;;;;7.90;4.03;;;20.90;99.50;;;;;;5115066;27;20038;-65
2023/07/16 10:38:18;;;;;;;14.55;4.10;;;21.20;99.20;;;;;;5118946;27;20498;-64
2023/07/16 10:40:45;;;;;;;7.78;3.72;;;21.50;98.60;;;;;;5127367;27;20077;-63
2023/07/16 10:43:14;;;;;;;8.00;3.80;;;21.50;98.30;;;;;;5120375;27;20526;-64
2023/07/16 10:45:41;;;;;;;7.80;3.58;;;21.50;97.80;;;;;;5146251;27;20435;-65
2023/07/16 10:48:07;;;;;;;7.28;3.50;;;21.60;97.40;;;;;;5122987;27;20043;-65
2023/07/16 10:50:34;;;;;;;8.45;3.75;;;21.90;98.00;;;;;;5123607;27;20050;-63
2023/07/16 10:53:00;;;;;;;7.50;3.60;;;21.80;97.40;;;;;;5124156;27;20088;-64
2023/07/16 10:55:31;;;;;;;7.05;3.50;;;21.70;97.30;;;;;;5135051;27;20054;-64
2023/07/16 10:57:57;;;;;;;8.30;3.97;;;21.80;97.30;;;;;;5106228;27;20049;-64
2023/07/16 11:00:23;;;;;;;6.97;3.50;;;21.80;96.70;;;;;;5115238;27;20424;-64
2023/07/16 11:02:52;;;;;;;9.00;3.92;;;21.60;97.00;;;;;;5147707;27;20087;-64
2023/07/16 11:05:18;;;;;;;8.32;3.83;;;21.60;97.60;;;;;;5128085;27;20046;-65
2023/07/16 11:07:48;;;;;;;8.98;3.97;;;21.70;97.20;;;;;;5122078;27;20039;-64
2023/07/16 11:10:18;;;;;;;7.88;4.00;;;21.60;97.00;;;;;;5119125;27;20038;-63
2023/07/16 11:12:44;;;;;;;7.05;3.92;;;21.60;97.20;;;;;;5114372;27;20039;-65
2023/07/16 11:15:10;;;;;;;7.15;3.97;;;21.30;96.60;;;;;;5118357;27;20066;-64
2023/07/16 11:17:39;;;;;;;5.97;3.50;;;21.20;96.80;;;;;;5120996;27;20039;-65
2023/07/16 11:20:08;;;;;;;8.80;4.07;;;21.00;97.20;;;;;;5115213;27;20062;-63
2023/07/16 11:22:38;;;;;;;8.52;4.18;;;20.90;97.90;;;;;;5125280;27;20047;-63
2023/07/16 11:25:11;;;;;;;5.80;3.70;;;20.80;98.00;;;;;;5114406;27;20043;-63
2023/07/16 11:27:41;;;;;;;11.43;4.50;;;20.60;98.20;;;;;;5115547;27;20039;-65
2023/07/16 11:30:07;;;;;;;8.20;4.30;;;20.40;98.20;;;;;;5136280;27;20043;-64
2023/07/16 11:32:34;;;;;;;6.32;3.92;;;20.30;98.50;;;;;;5123865;27;20125;-64
2023/07/16 11:35:02;;;;;;;8.48;4.00;;;20.20;99.00;;;;;;5114719;27;20050;-63
2023/07/16 11:37:29;;;;;;;8.80;4.18;;;20.20;99.10;;;;;;5114010;27;20089;-64
2023/07/16 11:40:07;;;;;;;6.93;4.00;;;20.10;99.00;;;;;;5120361;27;20039;-64
2023/07/16 11:42:39;;;;;;;9.20;4.20;;;20.10;99.50;;;;;;5122361;27;20128;-62
2023/07/16 11:45:23;;;;;;;11.02;4.32;;;20.10;99.40;;;;;;5130650;27;20125;-63
2023/07/16 11:47:49;;;;;;;7.80;3.92;;;20.30;99.80;;;;;;5137330;27;20038;-63
2023/07/16 11:50:15;;;;;;;7.60;3.95;;;20.50;99.40;;;;;;5121152;27;20043;-64
2023/07/16 11:52:41;;;;;;;8.05;3.92;;;20.70;99.30;;;;;;5118576;27;20039;-65
2023/07/16 11:55:07;;;;;;;9.25;4.03;;;20.90;98.90;;;;;;5099036;27;20051;-64
2023/07/16 11:57:34;;;;;;;7.22;4.10;;;20.90;98.80;;;;;;5124184;27;20045;-65
2023/07/16 12:00:00;;;;;;;8.38;4.00;;;20.80;98.50;;;;;;5133754;27;20495;-65
2023/07/16 12:02:27;;;;;;;8.57;4.10;;;20.80;99.30;;;;;;5140561;27;20066;-64
2023/07/16 12:04:52;;;;;;;7.40;3.55;;;20.80;99.20;;;;;;5122310;27;20076;-65
2023/07/16 12:07:32;;;;;;;6.75;3.55;;;20.80;99.60;;;;;;5145811;27;20464;-63
2023/07/16 12:09:58;;;;;;;6.68;3.88;;;20.90;99.90;;;;;;5129422;27;20035;-65
2023/07/16 12:12:23;;;;;;;7.72;4.32;;;20.80;99.10;;;;;;5149131;27;20397;-65
2023/07/16 12:14:49;;;;;;;7.10;4.15;;;20.70;99.20;;;;;;5133637;27;20075;-66
2023/07/16 12:17:15;;;;;;;12.27;4.55;;;20.60;99.30;;;;;;5133859;27;20047;-64
2023/07/16 12:19:40;;;;;;;8.85;4.50;;;20.50;99.90;;;;;;5133786;27;20042;-65
2023/07/16 12:22:06;;;;;;;10.23;4.63;;;20.30;99.90;;;;;;5132856;27;20047;-64
2023/07/16 12:24:32;;;;;;;8.25;4.30;;;20.10;99.90;;;;;;5122809;27;20046;-65
2023/07/16 12:26:57;;;;;;;8.75;4.22;;;20.20;99.90;;;;;;5131864;27;20042;-64
2023/07/16 12:29:24;;;;;;;7.45;4.20;;;20.40;99.90;;;;;;5143339;27;20026;-65
2023/07/16 12:31:49;;;;;;;11.57;4.43;;;20.40;99.90;;;;;;5124336;27;20142;-65
2023/07/16 12:34:15;;;;;;;9.82;4.55;;;20.40;99.90;;;;;;5124892;27;20122;-64
2023/07/16 12:36:41;;;;;;;9.68;4.40;;;20.40;99.90;;;;;;5121282;27;20046;-64
2023/07/16 12:39:06;;;;;;;12.38;5.22;;;20.40;99.90;;;;;;5117206;27;20436;-64
2023/07/16 12:41:32;;;;;;;7.82;3.83;;;20.30;99.90;;;;;;5114607;27;20137;-64